Time;durP1;ratioP1;P1;durP2;ratioP2;P2;SDS_P1;SDS_P2;PMS_P1;PMS_P2;Temp;Humidity;BMP_temperature;BMP_pressure;BME280_temperature;BME280_humidity;BME280_pressure;Samples;Min_cycle;Max_cycle;Signal;HPM_P1;HPM_P2
2023/01/16 00:03:41;;;;;;;9.40;9.10;;;2.20;99.90;;;;;;6224885;23;20198;-89
2023/01/16 00:15:45;;;;;;;9.40;9.10;;;2.10;99.90;;;;;;6239159;22;20210;-88
2023/01/16 00:18:24;;;;;;;9.57;9.27;;;2.10;99.90;;;;;;6237802;23;20272;-87
2023/01/16 00:21:11;;;;;;;9.47;9.17;;;2.00;99.90;;;;;;6238312;23;20190;-88
2023/01/16 00:23:44;;;;;;;9.50;9.20;;;2.00;99.90;;;;;;6238171;23;20230;-88
2023/01/16 00:26:27;;;;;;;9.50;9.20;;;2.00;99.90;;;;;;6237489;22;20222;-88
2023/01/16 00:34:52;;;;;;;9.30;9.00;;;2.00;99.90;;;;;;6233980;23;20195;-88
2023/01/16 00:40:31;;;;;;;9.40;9.10;;;2.00;99.90;;;;;;6225233;23;20242;-87
2023/01/16 00:46:15;;;;;;;9.83;9.53;;;2.00;99.90;;;;;;6238879;22;20210;-88
2023/01/16 00:48:45;;;;;;;9.67;9.37;;;2.00;99.90;;;;;;6239676;23;20174;-88
2023/01/16 00:51:24;;;;;;;9.60;9.30;;;1.90;99.90;;;;;;6238085;23;20253;-88
2023/01/16 00:54:01;;;;;;;9.70;9.40;;;1.90;99.90;;;;;;6239873;23;20203;-87
2023/01/16 00:59:31;;;;;;;9.53;9.23;;;1.90;99.90;;;;;;6237220;23;20218;-87
2023/01/16 01:02:25;;;;;;;9.50;9.20;;;1.90;99.90;;;;;;6238978;23;20202;-88
2023/01/16 01:05:09;;;;;;;9.43;9.13;;;2.00;99.90;;;;;;6235073;23;20249;-88
2023/01/16 01:07:56;;;;;;;9.30;9.00;;;2.00;99.90;;;;;;6234388;22;20234;-87
2023/01/16 01:10:44;;;;;;;9.37;9.07;;;2.00;99.90;;;;;;6234977;23;20198;-87
2023/01/16 01:13:22;;;;;;;9.50;9.20;;;1.90;99.90;;;;;;6242764;23;20230;-88
2023/01/16 01:16:00;;;;;;;9.47;9.17;;;1.90;99.90;;;;;;6246407;22;20264;-89
2023/01/16 01:21:45;;;;;;;9.40;9.10;;;1.90;99.90;;;;;;6236876;23;20233;-86
2023/01/16 01:24:29;;;;;;;9.50;9.20;;;1.90;99.90;;;;;;6243281;22;20208;-87
2023/01/16 01:27:10;;;;;;;9.27;8.97;;;1.90;99.90;;;;;;6244196;22;20213;-87
2023/01/16 01:30:06;;;;;;;9.47;9.17;;;1.90;99.90;;;;;;6236961;23;20191;-87
2023/01/16 01:32:48;;;;;;;9.57;9.27;;;2.00;99.90;;;;;;6239345;23;20186;-87
2023/01/16 01:35:30;;;;;;;9.50;9.20;;;2.00;99.90;;;;;;6238106;23;20194;-87
2023/01/16 01:48:08;;;;;;;9.60;9.30;;;1.80;99.90;;;;;;6226596;23;20191;-88
2023/01/16 01:50:43;;;;;;;9.70;9.40;;;1.80;99.90;;;;;;6238198;23;20211;-88
2023/01/16 01:56:18;;;;;;;9.60;9.30;;;1.70;99.90;;;;;;6230214;22;20203;-87
2023/01/16 01:58:57;;;;;;;9.40;9.10;;;1.70;99.90;;;;;;6235274;23;20253;-88
2023/01/16 02:04:49;;;;;;;9.40;9.10;;;1.70;99.90;;;;;;6234512;23;20202;-87
2023/01/16 02:07:34;;;;;;;9.40;9.10;;;1.70;99.90;;;;;;6238962;22;20217;-87
2023/01/16 02:10:26;;;;;;;9.40;9.10;;;1.70;99.90;;;;;;6249882;22;20186;-91
2023/01/16 02:22:56;;;;;;;9.03;8.73;;;1.50;99.90;;;;;;6238223;23;20175;-88
2023/01/16 02:26:29;;;;;;;9.40;9.10;;;1.50;99.90;;;;;;6233197;22;20277;-87
2023/01/16 02:30:01;;;;;;;9.40;9.10;;;1.50;99.90;;;;;;6140008;23;20351;-88
2023/01/16 02:33:27;;;;;;;9.40;9.10;;;1.60;99.90;;;;;;6232351;23;20277;-87
2023/01/16 02:51:49;;;;;;;9.63;9.33;;;1.80;99.90;;;;;;6229509;23;20198;-87
2023/01/16 02:54:38;;;;;;;9.47;9.17;;;1.80;99.90;;;;;;6229982;23;20269;-88
2023/01/16 02:57:32;;;;;;;9.37;9.07;;;1.80;99.90;;;;;;6229129;22;20198;-88
2023/01/16 03:00:16;;;;;;;9.40;9.10;;;1.80;99.90;;;;;;6229978;23;20222;-89
2023/01/16 03:06:12;;;;;;;9.50;9.20;;;1.80;99.90;;;;;;6229417;22;20199;-88
2023/01/16 03:09:40;;;;;;;9.27;8.97;;;1.80;99.90;;;;;;6230210;23;20190;-88
2023/01/16 03:12:40;;;;;;;9.30;9.00;;;1.90;99.90;;;;;;6230059;23;20205;-88
2023/01/16 03:15:26;;;;;;;9.10;8.80;;;1.90;99.90;;;;;;6230044;23;20206;-88
2023/01/16 03:26:02;;;;;;;9.37;9.07;;;1.80;99.90;;;;;;5179218;27;20199;-87
2023/01/16 03:29:21;;;;;;;9.67;9.37;;;1.90;99.90;;;;;;5157672;27;20228;-87
2023/01/16 03:32:24;;;;;;;9.60;9.30;;;1.90;99.90;;;;;;5158031;27;20223;-88
2023/01/16 03:35:04;;;;;;;9.40;9.10;;;1.80;99.90;;;;;;5157981;27;20227;-88
2023/01/16 03:37:43;;;;;;;9.30;9.00;;;1.80;99.90;;;;;;5157406;27;20288;-88
2023/01/16 03:40:24;;;;;;;9.40;9.10;;;1.90;99.90;;;;;;5164446;27;20218;-89
2023/01/16 03:42:59;;;;;;;9.30;9.00;;;1.90;99.90;;;;;;5167849;27;21029;-88
2023/01/16 03:45:47;;;;;;;9.40;9.10;;;1.90;99.90;;;;;;5158314;27;20223;-88
2023/01/16 03:51:37;;;;;;;9.40;9.10;;;1.90;99.90;;;;;;5154135;27;20306;-87
2023/01/16 03:54:36;;;;;;;9.27;8.97;;;1.90;99.90;;;;;;5158518;27;20239;-87
2023/01/16 03:58:07;;;;;;;9.40;9.10;;;1.80;99.90;;;;;;5157632;27;20253;-88
2023/01/16 04:01:10;;;;;;;9.30;9.00;;;1.80;99.90;;;;;;5157347;27;20230;-88
2023/01/16 04:10:23;;;;;;;9.20;8.90;;;1.80;99.90;;;;;;5164503;27;20211;-88
2023/01/16 04:13:48;;;;;;;;;;;;;;;;;;;;;
2023/01/16 04:16:49;;;;;;;9.13;8.83;;;1.60;99.90;;;;;;5174361;22;20224;-88
2023/01/16 04:22:44;;;;;;;9.20;8.90;;;1.60;99.90;;;;;;5135425;27;20228;-88
2023/01/16 05:00:03;;;;;;;9.10;8.80;;;1.40;99.90;;;;;;5103072;22;20240;-77
2023/01/16 05:02:32;;;;;;;9.20;8.90;;;1.40;99.90;;;;;;5120145;28;20268;-77
2023/01/16 05:04:59;;;;;;;9.10;8.80;;;1.40;99.90;;;;;;5120894;28;20229;-78
2023/01/16 05:07:27;;;;;;;9.33;9.03;;;1.40;99.90;;;;;;5123076;28;20237;-77
2023/01/16 05:09:55;;;;;;;9.43;9.13;;;1.30;99.90;;;;;;5121936;28;20266;-78
2023/01/16 05:12:22;;;;;;;9.20;8.90;;;1.30;99.90;;;;;;5122854;28;20233;-78
2023/01/16 05:14:50;;;;;;;8.97;8.73;;;1.20;99.90;;;;;;5122115;28;20233;-78
2023/01/16 05:17:17;;;;;;;8.80;8.60;;;1.20;99.90;;;;;;5122108;28;20308;-78
2023/01/16 05:19:46;;;;;;;9.20;8.90;;;1.10;99.90;;;;;;5121207;28;20236;-77
2023/01/16 05:22:13;;;;;;;9.23;8.93;;;1.10;99.90;;;;;;5121592;28;20315;-78
2023/01/16 05:24:41;;;;;;;9.37;9.07;;;1.10;99.90;;;;;;5121278;28;20232;-78
2023/01/16 05:27:08;;;;;;;9.20;8.90;;;1.10;99.90;;;;;;5121940;28;20232;-78
2023/01/16 05:29:36;;;;;;;9.10;8.80;;;1.00;99.90;;;;;;5121048;28;20237;-78
2023/01/16 05:32:04;;;;;;;9.20;8.90;;;1.00;99.90;;;;;;5121793;28;20231;-78
2023/01/16 05:34:31;;;;;;;9.17;8.87;;;1.00;99.90;;;;;;5121882;28;20295;-78
2023/01/16 05:37:00;;;;;;;9.00;8.70;;;0.90;99.90;;;;;;5121438;28;20312;-78
2023/01/16 05:39:27;;;;;;;9.00;8.70;;;0.90;99.90;;;;;;5120941;28;20248;-78
2023/01/16 05:41:55;;;;;;;9.10;8.80;;;0.80;99.90;;;;;;5121114;28;20280;-78
2023/01/16 05:44:22;;;;;;;9.10;8.80;;;0.80;99.90;;;;;;5120828;28;20292;-78
2023/01/16 05:46:50;;;;;;;8.70;8.50;;;0.80;99.90;;;;;;5121987;28;20233;-78
2023/01/16 05:49:18;;;;;;;8.50;8.30;;;0.70;99.90;;;;;;5120954;28;20225;-78
2023/01/16 05:51:46;;;;;;;8.50;8.30;;;0.70;99.90;;;;;;5120789;28;20229;-78
2023/01/16 05:54:15;;;;;;;8.60;8.40;;;0.70;99.90;;;;;;5121734;28;20229;-79
2023/01/16 05:56:43;;;;;;;8.20;8.00;;;0.70;99.90;;;;;;5122127;28;20259;-79
2023/01/16 05:59:11;;;;;;;8.50;8.30;;;0.70;99.90;;;;;;5125327;27;20240;-78
2023/01/16 06:01:39;;;;;;;8.40;8.20;;;0.70;99.90;;;;;;5141455;27;20228;-78
2023/01/16 06:04:06;;;;;;;8.20;8.00;;;0.70;99.90;;;;;;5142434;27;20295;-80
2023/01/16 06:06:34;;;;;;;8.50;8.30;;;0.70;99.90;;;;;;5145698;27;20250;-80
2023/01/16 06:09:01;;;;;;;8.57;8.37;;;0.70;99.90;;;;;;5144020;27;20338;-80
2023/01/16 06:11:30;;;;;;;8.80;8.60;;;0.70;99.90;;;;;;5144526;27;20222;-80
2023/01/16 06:14:03;;;;;;;8.70;8.50;;;0.70;99.90;;;;;;5145421;27;20292;-80
2023/01/16 06:16:30;;;;;;;8.60;8.40;;;0.70;99.90;;;;;;5143731;27;20228;-80
2023/01/16 06:18:58;;;;;;;8.70;8.50;;;0.60;99.90;;;;;;5143898;27;20292;-80
2023/01/16 06:21:25;;;;;;;8.50;8.30;;;0.60;99.90;;;;;;5135962;27;20324;-80
2023/01/16 06:23:53;;;;;;;8.47;8.27;;;0.60;99.90;;;;;;5123850;28;20233;-80
2023/01/16 06:26:20;;;;;;;8.80;8.60;;;0.60;99.90;;;;;;5123966;28;20311;-80
2023/01/16 06:28:49;;;;;;;8.33;8.13;;;0.50;99.90;;;;;;5122788;28;20288;-82
2023/01/16 06:31:17;;;;;;;8.30;8.10;;;0.50;99.90;;;;;;5126706;27;20227;-80
2023/01/16 06:33:44;;;;;;;8.20;8.00;;;0.50;99.90;;;;;;5144965;27;20262;-80
2023/01/16 06:36:12;;;;;;;7.83;7.63;;;0.50;99.90;;;;;;5143968;27;20228;-79
2023/01/16 06:38:39;;;;;;;7.83;7.63;;;0.50;99.90;;;;;;5142208;27;20224;-79
2023/01/16 06:41:07;;;;;;;8.17;7.97;;;0.50;99.90;;;;;;5122488;28;20316;-79
2023/01/16 06:43:34;;;;;;;7.80;7.60;;;0.50;99.90;;;;;;5122885;28;20283;-79
2023/01/16 06:46:04;;;;;;;8.07;7.87;;;0.60;99.90;;;;;;5121854;28;20312;-79
2023/01/16 06:48:34;;;;;;;8.17;7.97;;;0.60;99.90;;;;;;5122399;28;20323;-79
2023/01/16 06:51:02;;;;;;;8.60;8.40;;;0.60;99.90;;;;;;5121862;28;20216;-79
2023/01/16 06:53:29;;;;;;;8.70;8.50;;;0.50;99.90;;;;;;5121728;28;20255;-79
2023/01/16 06:55:57;;;;;;;8.60;8.40;;;0.60;99.90;;;;;;5121977;28;20260;-79
2023/01/16 06:58:24;;;;;;;8.37;8.17;;;0.60;99.90;;;;;;5122071;28;20319;-78
2023/01/16 07:00:52;;;;;;;8.87;8.67;;;0.60;99.90;;;;;;5121541;28;20278;-78
2023/01/16 07:03:22;;;;;;;8.80;8.60;;;0.60;99.90;;;;;;5122699;28;20343;-78
2023/01/16 07:05:49;;;;;;;8.80;8.60;;;0.50;99.90;;;;;;5123865;28;20236;-79
2023/01/16 07:08:17;;;;;;;8.50;8.30;;;0.60;99.90;;;;;;5124020;28;20267;-79
2023/01/16 07:10:45;;;;;;;8.80;8.60;;;0.60;99.90;;;;;;5123435;28;20232;-79
2023/01/16 07:13:12;;;;;;;8.90;8.70;;;0.60;99.90;;;;;;5122983;28;20229;-78
2023/01/16 07:24:05;;;;;;;9.30;9.00;;;0.80;99.90;;;;;;5119424;28;20224;-78
2023/01/16 07:26:34;;;;;;;9.13;8.83;;;0.80;99.90;;;;;;5119977;28;20233;-77
2023/01/16 07:29:03;;;;;;;9.33;9.03;;;0.80;99.90;;;;;;5120211;28;20356;-77
2023/01/16 07:31:33;;;;;;;8.80;8.60;;;0.80;99.90;;;;;;5120699;28;20266;-77
2023/01/16 07:34:02;;;;;;;8.50;8.30;;;0.90;99.90;;;;;;5124623;27;20324;-77
2023/01/16 07:36:29;;;;;;;8.93;8.73;;;0.90;99.90;;;;;;5132317;28;20225;-76
2023/01/16 07:38:56;;;;;;;8.90;8.70;;;0.90;99.90;;;;;;5137283;27;20220;-77
2023/01/16 07:41:24;;;;;;;9.30;9.00;;;0.90;99.90;;;;;;5136244;27;20228;-76
2023/01/16 07:43:53;;;;;;;9.03;8.77;;;1.00;99.90;;;;;;5136893;28;20239;-76
2023/01/16 07:46:21;;;;;;;9.27;8.97;;;1.00;99.90;;;;;;5134291;27;20285;-77
2023/01/16 07:48:50;;;;;;;9.40;9.10;;;1.00;99.90;;;;;;5135901;28;20223;-77
2023/01/16 07:51:19;;;;;;;9.47;9.17;;;1.10;99.90;;;;;;5134044;28;20217;-80
2023/01/16 07:53:46;;;;;;;9.30;9.00;;;1.20;99.90;;;;;;5132414;28;20243;-79
2023/01/16 07:56:14;;;;;;;9.30;9.00;;;1.20;99.90;;;;;;5134618;28;20284;-77
2023/01/16 07:58:42;;;;;;;9.13;8.83;;;1.30;99.90;;;;;;5134552;28;20221;-78
2023/01/16 08:01:11;;;;;;;9.40;9.10;;;1.40;99.90;;;;;;5131552;28;20240;-78
2023/01/16 08:03:39;;;;;;;9.30;9.00;;;1.40;99.90;;;;;;5131412;28;20235;-79
2023/01/16 08:06:08;;;;;;;9.20;8.90;;;1.50;99.90;;;;;;5130113;27;20231;-77
2023/01/16 08:08:37;;;;;;;9.20;8.90;;;1.50;99.90;;;;;;5129840;28;20237;-78
2023/01/16 08:11:35;;;;;;;9.20;8.90;;;1.60;99.90;;;;;;5130557;28;20221;-78
2023/01/16 08:13:53;;;;;;;9.00;8.73;;;1.70;99.90;;;;;;5133151;28;20270;-78
2023/01/16 08:16:20;;;;;;;8.87;8.67;;;1.80;99.90;;;;;;5132188;28;20311;-78
2023/01/16 08:18:48;;;;;;;9.27;8.97;;;1.90;99.90;;;;;;5139773;27;20224;-76
2023/01/16 08:21:17;;;;;;;9.10;8.80;;;1.90;99.90;;;;;;5139686;27;20262;-77
2023/01/16 08:23:46;;;;;;;9.60;9.30;;;1.90;99.90;;;;;;5140533;28;20266;-77
2023/01/16 08:26:14;;;;;;;9.10;8.80;;;2.00;99.90;;;;;;5140774;27;20239;-77
2023/01/16 08:28:41;;;;;;;9.40;9.10;;;2.10;99.90;;;;;;5137456;27;20284;-76
2023/01/16 08:31:12;;;;;;;9.30;9.00;;;2.10;99.90;;;;;;5137377;28;20288;-78
2023/01/16 08:33:41;;;;;;;9.57;9.27;;;2.50;99.90;;;;;;5131693;28;20221;-77
2023/01/16 08:36:12;;;;;;;9.50;9.20;;;3.10;99.90;;;;;;5137303;28;20293;-77
2023/01/16 08:38:40;;;;;;;9.67;9.37;;;2.90;99.90;;;;;;5136431;28;20221;-76
2023/01/16 08:51:21;;;;;;;9.50;9.20;;;2.80;99.90;;;;;;5136574;28;20270;-79
2023/01/16 08:52:14;;;;;;;9.50;9.20;;;2.50;99.90;;;;;;5140735;27;20201;-79
2023/01/16 08:54:41;;;;;;;9.40;9.10;;;2.70;99.90;;;;;;5140512;28;20250;-79
2023/01/16 08:57:11;;;;;;;9.80;9.50;;;2.80;99.90;;;;;;5140982;27;20247;-79
2023/01/16 08:59:38;;;;;;;9.60;9.30;;;2.90;99.90;;;;;;5139837;27;20288;-78
2023/01/16 09:02:07;;;;;;;9.70;9.40;;;3.00;99.90;;;;;;5137849;27;20297;-79
2023/01/16 09:04:36;;;;;;;9.50;9.20;;;3.20;99.90;;;;;;5130949;28;20229;-79
2023/01/16 09:07:04;;;;;;;9.30;9.00;;;3.40;99.90;;;;;;5127046;28;20228;-79
2023/01/16 09:09:31;;;;;;;9.53;9.23;;;3.40;99.90;;;;;;5124244;28;20263;-79
2023/01/16 09:14:45;;;;;;;9.83;9.53;;;3.60;99.90;;;;;;5123710;28;20243;-78
2023/01/16 09:17:13;;;;;;;9.70;9.40;;;3.70;99.90;;;;;;5122916;27;21086;-79
2023/01/16 09:19:40;;;;;;;10.00;9.70;;;3.80;99.90;;;;;;5122714;28;20250;-79
2023/01/16 09:22:10;;;;;;;9.70;9.40;;;3.70;99.90;;;;;;5122796;28;20290;-79
2023/01/16 09:24:38;;;;;;;9.80;9.50;;;3.80;99.90;;;;;;5124224;28;20232;-79
2023/01/16 09:27:07;;;;;;;9.90;9.60;;;3.90;99.90;;;;;;5112360;28;20241;-81
2023/01/16 09:29:34;;;;;;;9.90;9.60;;;3.90;99.90;;;;;;5112643;28;20233;-80
2023/01/16 09:32:08;;;;;;;10.00;9.70;;;3.90;99.90;;;;;;5126504;28;20248;-80
2023/01/16 09:34:36;;;;;;;10.20;9.90;;;4.00;99.90;;;;;;5125334;28;20243;-79
2023/01/16 09:37:05;;;;;;;9.93;9.63;;;4.20;99.90;;;;;;5124161;28;20251;-79
2023/01/16 09:39:32;;;;;;;10.13;9.83;;;4.30;99.90;;;;;;5124167;28;20288;-79
2023/01/16 09:45:19;;;;;;;10.30;10.00;;;4.70;99.90;;;;;;5074902;28;20216;-80
2023/01/16 09:47:52;;;;;;;10.10;9.80;;;4.80;99.90;;;;;;5112464;28;20229;-80
2023/01/16 09:50:28;;;;;;;10.20;9.90;;;4.90;99.90;;;;;;5111527;28;20233;-79
2023/01/16 09:58:38;;;;;;;9.80;9.50;;;5.30;99.90;;;;;;5103907;28;20304;-79
2023/01/16 10:01:09;;;;;;;9.43;9.13;;;5.40;99.90;;;;;;5104045;28;20743;-79
2023/01/16 10:03:42;;;;;;;9.30;9.00;;;5.40;99.90;;;;;;5113433;28;20261;-80
2023/01/16 10:06:22;;;;;;;9.07;8.80;;;5.40;99.90;;;;;;5107930;28;20234;-80
2023/01/16 10:09:06;;;;;;;9.40;9.10;;;5.40;99.90;;;;;;5112038;28;20233;-79
2023/01/16 10:11:41;;;;;;;9.50;9.20;;;5.40;99.90;;;;;;5111420;27;20257;-79
2023/01/16 10:14:36;;;;;;;9.90;9.60;;;5.40;99.90;;;;;;5121701;27;20207;-79
2023/01/16 10:17:17;;;;;;;9.73;9.43;;;5.40;99.90;;;;;;5103635;28;21084;-78
2023/01/16 10:20:13;;;;;;;10.10;9.80;;;5.40;99.90;;;;;;5129332;27;20299;-79
2023/01/16 10:22:55;;;;;;;10.20;9.90;;;5.50;99.90;;;;;;5143469;27;20236;-79
2023/01/16 10:25:31;;;;;;;9.87;9.57;;;5.70;99.90;;;;;;5145187;27;20255;-81
2023/01/16 10:28:15;;;;;;;10.10;9.80;;;5.80;99.90;;;;;;5144848;27;20236;-79
2023/01/16 10:30:49;;;;;;;10.00;9.70;;;6.00;99.90;;;;;;5142373;27;20323;-79
2023/01/16 10:33:29;;;;;;;10.10;9.80;;;6.10;99.90;;;;;;5145607;27;20239;-79
2023/01/16 10:35:59;;;;;;;10.33;10.03;;;6.20;99.90;;;;;;5143830;27;20254;-79
2023/01/16 10:38:42;;;;;;;10.40;10.10;;;6.30;99.90;;;;;;5143515;27;20234;-79
2023/01/16 10:49:36;;;;;;;10.07;9.77;;;6.60;99.90;;;;;;5142247;27;20323;-79
2023/01/16 10:52:06;;;;;;;10.40;10.10;;;6.50;99.90;;;;;;5140315;27;20232;-78
2023/01/16 10:54:34;;;;;;;10.30;10.00;;;6.40;99.90;;;;;;5141315;27;20288;-78
2023/01/16 10:57:03;;;;;;;9.70;9.40;;;6.30;99.90;;;;;;5140742;27;20267;-78
2023/01/16 10:59:33;;;;;;;9.87;9.57;;;6.30;99.90;;;;;;5140523;27;20707;-78
2023/01/16 11:02:10;;;;;;;9.80;9.50;;;6.20;99.90;;;;;;5143150;27;20240;-78
2023/01/16 11:04:37;;;;;;;9.97;9.67;;;6.10;99.90;;;;;;5143607;27;20220;-78
2023/01/16 11:08:01;;;;;;;9.60;9.30;;;6.30;99.90;;;;;;5163498;22;20236;-89
2023/01/16 11:10:42;;;;;;;9.60;9.30;;;6.60;99.90;;;;;;5099482;28;20260;-86
2023/01/16 11:22:53;;;;;;;9.63;9.33;;;6.00;99.90;;;;;;5095008;28;20299;-90
2023/01/16 11:25:47;;;;;;;9.50;9.20;;;6.10;99.90;;;;;;5078509;28;20250;-88
2023/01/16 11:28:50;;;;;;;9.83;9.53;;;6.40;99.90;;;;;;5091668;28;20236;-87
2023/01/16 11:31:30;;;;;;;9.70;9.40;;;6.50;99.90;;;;;;5104992;28;20221;-88
2023/01/16 11:34:16;;;;;;;9.80;9.50;;;6.50;99.90;;;;;;5065829;28;20300;-89
2023/01/16 11:37:11;;;;;;;9.87;9.57;;;6.50;99.90;;;;;;5065339;28;20265;-88
2023/01/16 11:39:42;;;;;;;9.97;9.67;;;6.60;99.90;;;;;;5074036;28;20199;-87
2023/01/16 12:04:29;;;;;;;10.00;9.70;;;6.30;99.90;;;;;;6188015;22;1514136;-90
2023/01/16 12:22:57;;;;;;;9.30;9.00;;;5.80;99.90;;;;;;6182742;23;20187;-87
2023/01/16 12:25:53;;;;;;;9.50;9.20;;;5.80;99.90;;;;;;6196874;23;20187;-91
2023/01/16 12:28:48;;;;;;;9.33;9.03;;;5.80;99.90;;;;;;6151270;23;20195;-90
2023/01/16 12:32:14;;;;;;;9.33;9.03;;;5.80;99.90;;;;;;6167310;23;20184;-88
2023/01/16 12:35:42;;;;;;;9.17;8.90;;;5.80;99.90;;;;;;6166939;23;20273;-89
2023/01/16 12:38:31;;;;;;;9.20;8.90;;;5.80;99.90;;;;;;6143182;23;20206;-89
2023/01/16 12:56:03;;;;;;;9.70;9.40;;;5.80;99.90;;;;;;6075558;23;20296;-90
2023/01/16 13:04:35;;;;;;;9.47;9.17;;;5.80;99.90;;;;;;6137414;23;20197;-87
2023/01/16 13:07:03;;;;;;;9.13;8.90;;;5.90;99.90;;;;;;6138818;23;20213;-88
2023/01/16 13:09:49;;;;;;;9.80;9.50;;;5.90;99.90;;;;;;6139390;23;20209;-88
2023/01/16 13:15:26;;;;;;;9.40;9.10;;;5.90;99.90;;;;;;6069480;23;20236;-87
2023/01/16 13:18:05;;;;;;;9.40;9.10;;;5.90;99.90;;;;;;6139015;23;20219;-87
2023/01/16 13:21:08;;;;;;;9.50;9.20;;;5.90;99.90;;;;;;6138459;23;20248;-89
2023/01/16 13:24:23;;;;;;;9.40;9.10;;;5.90;99.90;;;;;;6137537;23;20189;-88
2023/01/16 13:27:01;;;;;;;9.00;8.80;;;5.90;99.90;;;;;;6137495;23;20209;-88
2023/01/16 13:30:39;;;;;;;9.30;9.00;;;5.90;99.90;;;;;;6138024;23;20201;-89
2023/01/16 13:33:18;;;;;;;8.70;8.50;;;5.90;99.90;;;;;;6141597;23;20208;-88
2023/01/16 13:35:57;;;;;;;8.20;8.00;;;5.90;99.90;;;;;;6143586;23;20271;-88
2023/01/16 13:39:00;;;;;;;8.27;8.07;;;5.90;99.90;;;;;;6139132;23;20219;-88
2023/01/16 13:41:39;;;;;;;8.80;8.60;;;5.90;99.90;;;;;;6138100;23;20197;-89
2023/01/16 13:47:15;;;;;;;8.90;8.70;;;5.90;99.90;;;;;;6138411;23;20257;-88
2023/01/16 14:02:45;;;;;;;8.53;8.33;;;5.80;99.90;;;;;;6158104;23;20244;-89
2023/01/16 14:06:16;;;;;;;8.50;8.30;;;5.80;99.90;;;;;;6161197;23;20184;-89
2023/01/16 14:09:07;;;;;;;8.70;8.50;;;5.80;99.90;;;;;;6160729;23;20267;-90
2023/01/16 14:11:59;;;;;;;8.80;8.60;;;5.80;99.90;;;;;;6161082;23;20185;-89
2023/01/16 14:18:19;;;;;;;9.00;8.80;;;5.70;99.90;;;;;;6160590;23;20199;-88
2023/01/16 14:21:11;;;;;;;8.90;8.70;;;5.60;99.90;;;;;;6128422;23;20283;-88
2023/01/16 14:26:27;;;;;;;8.70;8.50;;;5.60;99.90;;;;;;6129120;23;20192;-88
2023/01/16 14:28:58;;;;;;;8.83;8.63;;;5.70;99.90;;;;;;6140407;23;20204;-88
2023/01/16 14:31:36;;;;;;;8.53;8.33;;;5.70;99.90;;;;;;6140440;23;20208;-87
2023/01/16 14:34:14;;;;;;;8.50;8.30;;;5.70;99.90;;;;;;6139511;23;20224;-88
2023/01/16 14:36:53;;;;;;;8.70;8.50;;;5.70;99.90;;;;;;6137736;23;20205;-86
2023/01/16 14:39:38;;;;;;;8.73;8.53;;;5.70;99.90;;;;;;6138864;23;20224;-83
2023/01/16 15:00:12;;;;;;;8.90;8.70;;;5.60;99.90;;;;;;6137938;23;20207;-86
2023/01/16 15:02:56;;;;;;;9.40;9.10;;;5.70;99.90;;;;;;6138456;23;20197;-86
2023/01/16 15:05:49;;;;;;;9.00;8.80;;;5.80;99.90;;;;;;6140085;23;20257;-86
2023/01/16 15:08:22;;;;;;;8.87;8.67;;;5.70;99.90;;;;;;6138610;23;20223;-86
2023/01/16 15:11:30;;;;;;;8.90;8.70;;;5.70;99.90;;;;;;6139036;23;20279;-86
2023/01/16 15:25:16;;;;;;;9.37;9.07;;;5.60;99.90;;;;;;6161456;23;20179;-88
2023/01/16 15:30:39;;;;;;;9.60;9.30;;;5.50;99.90;;;;;;6161673;23;20208;-90
2023/01/16 15:33:45;;;;;;;9.60;9.30;;;5.40;99.90;;;;;;6160926;23;20181;-89
2023/01/16 15:36:31;;;;;;;9.50;9.20;;;5.40;99.90;;;;;;6159994;23;20216;-88
2023/01/16 15:39:18;;;;;;;9.30;9.00;;;5.30;99.90;;;;;;6140220;23;20200;-86
2023/01/16 15:48:15;;;;;;;8.83;8.63;;;5.20;99.90;;;;;;6140930;23;20207;-86
2023/01/16 15:50:55;;;;;;;9.27;8.97;;;5.20;99.90;;;;;;6137544;23;20204;-87
2023/01/16 15:56:11;;;;;;;9.10;8.80;;;5.30;99.90;;;;;;6143489;23;20216;-88
2023/01/16 16:01:35;;;;;;;9.30;9.00;;;5.50;99.90;;;;;;6137103;23;20201;-88
2023/01/16 16:04:06;;;;;;;9.37;9.07;;;5.50;99.90;;;;;;6137728;23;20276;-87
2023/01/16 16:09:30;;;;;;;8.60;8.40;;;5.40;99.90;;;;;;6145427;23;20201;-88
2023/01/16 16:12:09;;;;;;;8.80;8.60;;;5.40;99.90;;;;;;6160111;23;20192;-89
2023/01/16 16:20:38;;;;;;;8.30;8.10;;;5.30;99.90;;;;;;6139980;23;20188;-86
2023/01/16 16:23:16;;;;;;;8.57;8.37;;;5.30;99.90;;;;;;6140578;23;20210;-86
2023/01/16 16:25:54;;;;;;;9.33;9.03;;;5.20;99.90;;;;;;6136521;23;20189;-87
2023/01/16 16:31:23;;;;;;;9.00;8.80;;;5.20;99.90;;;;;;6138339;23;20201;-87
2023/01/16 16:34:06;;;;;;;9.20;8.90;;;5.20;99.90;;;;;;6140242;23;20193;-86
2023/01/16 16:36:44;;;;;;;8.93;8.70;;;5.20;99.90;;;;;;6142125;23;20201;-86
2023/01/16 16:39:39;;;;;;;8.50;8.30;;;5.10;99.90;;;;;;6142079;23;20201;-88
2023/01/16 16:42:55;;;;;;;8.80;8.60;;;5.20;99.90;;;;;;6143792;23;20189;-86
2023/01/16 16:45:43;;;;;;;8.67;8.47;;;5.20;99.90;;;;;;6143230;23;20294;-86
2023/01/16 16:48:27;;;;;;;8.40;8.20;;;5.10;99.90;;;;;;6142787;23;20236;-86
2023/01/16 16:51:32;;;;;;;8.60;8.40;;;5.10;99.90;;;;;;6141526;23;20200;-87
2023/01/16 16:54:05;;;;;;;8.53;8.33;;;5.20;99.90;;;;;;6139418;23;20248;-87
2023/01/16 16:56:39;;;;;;;8.70;8.50;;;5.10;99.90;;;;;;6138812;23;20197;-87
2023/01/16 16:59:17;;;;;;;8.90;8.70;;;5.20;99.90;;;;;;6140311;23;20204;-86
2023/01/16 17:01:50;;;;;;;8.90;8.70;;;5.20;99.90;;;;;;6142097;23;20189;-86
2023/01/16 17:09:31;;;;;;;8.23;8.03;;;5.20;99.90;;;;;;6163931;23;20243;-78
2023/01/16 17:12:13;;;;;;;8.30;8.10;;;5.20;99.90;;;;;;6170786;23;20284;-78
2023/01/16 17:14:42;;;;;;;8.57;8.37;;;5.20;99.90;;;;;;6178388;23;20196;-79
2023/01/16 17:17:12;;;;;;;8.70;8.50;;;5.20;99.90;;;;;;6173282;23;20216;-80
2023/01/16 17:19:39;;;;;;;8.60;8.40;;;5.20;99.90;;;;;;6172240;23;20211;-79
2023/01/16 17:22:07;;;;;;;8.70;8.50;;;5.20;99.90;;;;;;6172041;23;20199;-78
2023/01/16 17:24:36;;;;;;;8.97;8.77;;;5.20;99.90;;;;;;6180345;23;20199;-78
2023/01/16 17:27:07;;;;;;;8.37;8.17;;;5.20;99.90;;;;;;6184083;23;20251;-77
2023/01/16 17:29:35;;;;;;;8.50;8.30;;;5.20;99.90;;;;;;6189003;23;20196;-77
2023/01/16 17:32:05;;;;;;;8.50;8.30;;;5.10;99.90;;;;;;6188712;23;20267;-77
2023/01/16 17:34:33;;;;;;;8.60;8.40;;;5.10;99.90;;;;;;6189406;23;20196;-79
2023/01/16 17:37:01;;;;;;;8.80;8.60;;;5.10;99.90;;;;;;6188948;23;20192;-78
2023/01/16 17:39:29;;;;;;;8.63;8.43;;;5.10;99.90;;;;;;6187129;23;20196;-78
2023/01/16 17:47:29;;;;;;;8.60;8.40;;;5.30;99.90;;;;;;6188602;23;20208;-79
2023/01/16 17:52:42;;;;;;;8.60;8.40;;;5.40;99.90;;;;;;6188780;23;20181;-79
2023/01/16 17:57:59;;;;;;;8.40;8.20;;;5.50;99.90;;;;;;6173265;23;20220;-80
2023/01/16 18:00:26;;;;;;;8.63;8.43;;;5.60;99.90;;;;;;6171284;23;20233;-81
2023/01/16 18:02:54;;;;;;;8.20;8.00;;;5.60;99.90;;;;;;6169535;23;20196;-80
2023/01/16 18:05:22;;;;;;;8.43;8.23;;;5.70;99.90;;;;;;6169540;23;20223;-80
2023/01/16 18:07:50;;;;;;;8.80;8.60;;;5.70;99.90;;;;;;6166341;23;20348;-81
2023/01/16 18:10:18;;;;;;;9.00;8.80;;;5.70;99.90;;;;;;6167392;23;20203;-80
2023/01/16 18:18:19;;;;;;;9.03;8.83;;;5.80;99.90;;;;;;6171154;23;20279;-80
2023/01/16 18:21:59;;;;;;;8.87;8.67;;;5.80;99.90;;;;;;6168213;23;20196;-81
2023/01/16 18:23:35;;;;;;;8.90;8.70;;;5.80;99.90;;;;;;6169669;23;20196;-80
2023/01/16 18:26:02;;;;;;;8.80;8.60;;;5.80;99.90;;;;;;6167011;23;20251;-81
2023/01/16 18:28:30;;;;;;;8.90;8.70;;;5.80;99.90;;;;;;6169417;23;20264;-79
2023/01/16 18:31:05;;;;;;;8.97;8.77;;;5.80;99.90;;;;;;6168822;23;20196;-79
2023/01/16 18:33:34;;;;;;;8.93;8.73;;;5.80;99.90;;;;;;6167635;23;20232;-80
2023/01/16 18:36:03;;;;;;;8.90;8.70;;;5.80;99.90;;;;;;6163888;23;20285;-80
2023/01/16 19:03:29;;;;;;;8.23;8.03;;;5.50;99.90;;;;;;6168488;23;20188;-80
2023/01/16 19:05:57;;;;;;;8.40;8.20;;;5.50;99.90;;;;;;6168389;23;20204;-80
2023/01/16 19:08:26;;;;;;;8.40;8.20;;;5.40;99.90;;;;;;6170211;23;20215;-80
2023/01/16 19:10:58;;;;;;;8.17;7.97;;;5.40;99.90;;;;;;6172204;23;20196;-80
2023/01/16 19:13:36;;;;;;;8.40;8.20;;;5.30;99.90;;;;;;6169950;23;20214;-80
2023/01/16 19:18:53;;;;;;;8.50;8.30;;;5.20;99.90;;;;;;6171038;23;20224;-80
2023/01/16 19:21:21;;;;;;;8.70;8.50;;;5.20;99.90;;;;;;6168678;23;20260;-81
2023/01/16 19:23:48;;;;;;;8.53;8.33;;;5.10;99.90;;;;;;6168529;23;20232;-80
2023/01/16 19:26:16;;;;;;;8.80;8.60;;;5.10;99.90;;;;;;6168794;23;20206;-80
2023/01/16 19:28:44;;;;;;;8.60;8.40;;;5.10;99.90;;;;;;6168473;23;20263;-80
2023/01/16 19:31:12;;;;;;;8.53;8.33;;;5.10;99.90;;;;;;6168062;23;20195;-81
2023/01/16 19:33:40;;;;;;;8.43;8.23;;;5.10;99.90;;;;;;6167322;23;20200;-82
2023/01/16 19:36:11;;;;;;;8.33;8.13;;;5.10;99.90;;;;;;6167401;23;20202;-81
2023/01/16 19:38:39;;;;;;;8.00;7.80;;;5.20;99.90;;;;;;6166344;23;20222;-80
2023/01/16 19:46:41;;;;;;;8.40;8.20;;;5.10;99.90;;;;;;6167901;23;20204;-81
2023/01/16 19:46:43;;;;;;;8.60;8.40;;;5.00;99.90;;;;;;6169863;23;20227;-81
2023/01/16 19:49:12;;;;;;;8.27;8.07;;;5.00;99.90;;;;;;6168962;23;20247;-80
2023/01/16 19:51:41;;;;;;;8.40;8.20;;;5.00;99.90;;;;;;6166795;23;20210;-80
2023/01/16 19:54:10;;;;;;;8.30;8.10;;;4.90;99.90;;;;;;6168388;23;20287;-81
2023/01/16 19:56:40;;;;;;;8.50;8.30;;;4.80;99.90;;;;;;6167814;23;20184;-81
2023/01/16 19:59:09;;;;;;;8.67;8.47;;;4.80;99.90;;;;;;6169687;23;20204;-81